Time;durP1;ratioP1;P1;durP2;ratioP2;P2;SDS_P1;SDS_P2;PMS_P1;PMS_P2;Temp;Humidity;BMP_temperature;BMP_pressure;BME280_temperature;BME280_humidity;BME280_pressure;Samples;Min_cycle;Max_cycle;Signal;HPM_P1;HPM_P2
2023/05/28 00:02:09;;;;;;;12.40;6.82;;;;;;;11.25;53.16;98981.59;5049264;28;20039;-66
2023/05/28 00:04:34;;;;;;;10.63;6.70;;;;;;;11.21;52.85;98973.09;5049096;28;20025;-67
2023/05/28 00:07:00;;;;;;;10.23;5.80;;;;;;;11.17;53.36;98974.78;5048370;28;20128;-67
2023/05/28 00:09:26;;;;;;;11.38;5.75;;;;;;;11.09;53.48;98970.72;5042705;28;20540;-67
2023/05/28 00:11:51;;;;;;;10.38;6.03;;;;;;;11.06;53.46;98970.50;5048616;28;20119;-67
2023/05/28 00:14:17;;;;;;;12.00;6.38;;;;;;;10.99;53.62;98965.34;5045024;28;20025;-67
2023/05/28 00:16:44;;;;;;;13.55;6.60;;;;;;;10.94;53.60;98971.66;5044642;28;20021;-67
2023/05/28 00:19:10;;;;;;;11.00;5.93;;;;;;;10.89;53.50;98968.16;5048324;28;20029;-67
2023/05/28 00:21:36;;;;;;;11.18;6.35;;;;;;;10.83;53.62;98965.44;5049098;28;20027;-67
2023/05/28 00:24:02;;;;;;;11.15;6.05;;;;;;;10.75;53.32;98967.97;5048292;28;20489;-67
2023/05/28 00:26:28;;;;;;;10.43;5.53;;;;;;;10.68;53.64;98971.84;5048997;28;20025;-68
2023/05/28 00:28:53;;;;;;;8.85;5.88;;;;;;;10.65;54.05;98966.09;5049125;28;20409;-68
2023/05/28 00:31:19;;;;;;;9.20;6.00;;;;;;;10.62;53.82;98963.94;5049181;28;20013;-67
2023/05/28 00:33:44;;;;;;;10.38;6.38;;;;;;;10.55;54.06;98967.00;5048941;28;20040;-68
2023/05/28 00:36:12;;;;;;;12.50;6.65;;;;;;;10.51;54.47;98960.44;5047828;28;20025;-67
2023/05/28 00:38:37;;;;;;;8.85;5.75;;;;;;;10.47;53.70;98962.09;5046681;28;20496;-68
2023/05/28 00:41:03;;;;;;;9.55;6.13;;;;;;;10.45;54.36;98956.91;5047619;28;20073;-68
2023/05/28 00:43:28;;;;;;;9.05;5.50;;;;;;;10.42;55.14;98961.03;5048934;28;20020;-68
2023/05/28 00:45:57;;;;;;;8.73;5.93;;;;;;;10.38;54.29;98948.16;5048313;28;20035;-67
2023/05/28 00:48:24;;;;;;;11.30;5.85;;;;;;;10.35;54.62;98940.47;5047839;28;20028;-68
2023/05/28 00:50:49;;;;;;;8.27;5.47;;;;;;;10.32;54.14;98952.00;5052104;28;20029;-67
2023/05/28 00:53:15;;;;;;;9.43;5.38;;;;;;;10.28;55.05;98951.75;5053080;28;20033;-68
2023/05/28 00:55:41;;;;;;;9.85;5.25;;;;;;;10.26;54.73;98945.75;5052734;28;20021;-68
2023/05/28 00:58:07;;;;;;;9.93;5.25;;;;;;;10.25;54.62;98949.59;5052393;28;20025;-67
2023/05/28 01:00:37;;;;;;;7.80;5.00;;;;;;;10.20;55.16;98950.41;5052484;28;20397;-67
2023/05/28 01:03:03;;;;;;;8.68;5.65;;;;;;;10.18;54.78;98949.91;5048420;28;20029;-67
2023/05/28 01:05:31;;;;;;;9.88;5.35;;;;;;;10.15;54.97;98944.16;5051312;28;20028;-68
2023/05/28 01:08:00;;;;;;;10.68;5.93;;;;;;;10.10;54.96;98937.59;5053241;28;20025;-68
2023/05/28 01:10:26;;;;;;;10.10;6.15;;;;;;;10.07;54.83;98943.63;5052547;28;20035;-67
2023/05/28 01:12:52;;;;;;;8.75;5.93;;;;;;;10.03;55.29;98941.75;5052684;28;20036;-67
2023/05/28 01:15:18;;;;;;;10.93;5.93;;;;;;;9.98;55.31;98928.88;5052652;28;20075;-68
2023/05/28 01:17:44;;;;;;;9.25;5.80;;;;;;;9.94;55.19;98934.09;5052354;28;20490;-68
2023/05/28 01:20:13;;;;;;;10.07;5.65;;;;;;;9.92;55.37;98927.28;5052294;28;20032;-68
2023/05/28 01:22:45;;;;;;;7.47;5.10;;;;;;;9.90;55.98;98926.72;5050587;28;20034;-68
2023/05/28 01:25:12;;;;;;;11.75;5.18;;;;;;;9.85;55.94;98924.00;5046630;28;20048;-67
2023/05/28 01:27:40;;;;;;;9.18;5.03;;;;;;;9.82;55.61;98923.47;5046758;28;20086;-67
2023/05/28 01:30:09;;;;;;;9.75;5.28;;;;;;;9.79;55.62;98920.44;5051489;28;20085;-67
2023/05/28 01:32:36;;;;;;;7.85;5.00;;;;;;;9.76;55.66;98915.56;5052359;28;20029;-68
2023/05/28 01:35:02;;;;;;;8.77;4.72;;;;;;;9.74;55.93;98918.56;5052341;28;20021;-67
2023/05/28 01:37:29;;;;;;;8.60;5.72;;;;;;;9.69;56.03;98910.34;5051941;28;20362;-68
2023/05/28 01:39:57;;;;;;;9.32;4.97;;;;;;;9.67;55.88;98912.56;5051903;28;20040;-67
2023/05/28 01:42:22;;;;;;;6.80;4.57;;;;;;;9.66;55.98;98913.66;5052387;28;20045;-67
2023/05/28 01:44:49;;;;;;;9.30;4.65;;;;;;;9.62;56.53;98921.63;5052220;28;20577;-67
2023/05/28 01:47:15;;;;;;;11.27;4.60;;;;;;;9.59;56.06;98916.69;5052465;28;20024;-67
2023/05/28 01:49:41;;;;;;;8.25;4.85;;;;;;;9.60;56.27;98915.59;5051959;28;20416;-67
2023/05/28 01:52:07;;;;;;;7.30;4.50;;;;;;;9.58;56.01;98919.72;5051781;28;20059;-68
2023/05/28 01:54:33;;;;;;;8.27;4.80;;;;;;;9.55;56.13;98921.09;5052378;28;20013;-67
2023/05/28 01:56:58;;;;;;;8.80;4.68;;;;;;;9.53;56.33;98918.63;5051739;28;20032;-68
2023/05/28 01:59:24;;;;;;;7.18;4.68;;;;;;;9.49;56.38;98914.81;5052011;28;20484;-67
2023/05/28 02:01:50;;;;;;;11.63;5.80;;;;;;;9.45;56.81;98924.69;5051473;28;20020;-67
2023/05/28 02:04:16;;;;;;;8.32;5.05;;;;;;;9.42;56.36;98921.66;5047977;28;20068;-67
2023/05/28 02:06:45;;;;;;;11.75;6.93;;;;;;;9.36;56.60;98931.81;5048006;28;20104;-67
2023/05/28 02:09:11;;;;;;;10.15;6.50;;;;;;;9.34;57.00;98928.53;5049952;28;20370;-67
2023/05/28 02:11:36;;;;;;;10.70;6.03;;;;;;;9.32;56.65;98922.50;5052238;28;20082;-67
2023/05/28 02:14:01;;;;;;;9.05;5.45;;;;;;;9.29;56.37;98925.78;5051867;28;20021;-67
2023/05/28 02:16:28;;;;;;;9.10;4.95;;;;;;;9.25;56.42;98914.59;5051683;28;20100;-67
2023/05/28 02:18:54;;;;;;;7.82;4.60;;;;;;;9.22;56.58;98915.13;5051473;28;20021;-67
2023/05/28 02:21:19;;;;;;;8.02;4.97;;;;;;;9.18;57.02;98914.84;5047769;28;20017;-67
2023/05/28 02:23:47;;;;;;;10.00;5.18;;;;;;;9.18;56.61;98917.59;5051641;28;20020;-67
2023/05/28 02:26:13;;;;;;;8.38;5.35;;;;;;;9.14;56.35;98910.22;5051363;28;20433;-67
2023/05/28 02:28:38;;;;;;;8.48;5.00;;;;;;;9.12;56.92;98917.88;5051553;28;20017;-67
2023/05/28 02:31:03;;;;;;;7.90;5.25;;;;;;;9.09;56.99;98911.06;5051070;28;20029;-66
2023/05/28 02:33:29;;;;;;;9.40;4.65;;;;;;;9.06;56.70;98915.13;5051487;28;20612;-67
2023/05/28 02:35:55;;;;;;;7.57;4.45;;;;;;;9.02;57.23;98914.03;5051330;28;20025;-67
2023/05/28 02:38:20;;;;;;;9.65;4.60;;;;;;;8.98;57.07;98912.16;5046281;28;20035;-67
2023/05/28 02:40:46;;;;;;;8.18;4.22;;;;;;;8.97;56.75;98913.25;5043204;28;20041;-67
2023/05/28 02:43:11;;;;;;;7.30;4.70;;;;;;;8.93;56.73;98921.19;5049173;28;20084;-67
2023/05/28 02:45:36;;;;;;;7.65;4.85;;;;;;;8.91;56.83;98921.44;5051104;28;20021;-67
2023/05/28 02:48:02;;;;;;;6.88;5.25;;;;;;;8.88;56.52;98922.00;5049874;28;20450;-67
2023/05/28 02:50:27;;;;;;;9.80;5.43;;;;;;;8.86;57.20;98915.16;5051615;28;20029;-67
2023/05/28 02:52:53;;;;;;;11.02;5.32;;;;;;;8.84;57.00;98925.56;5052023;28;20051;-67
2023/05/28 02:55:18;;;;;;;10.02;5.93;;;;;;;8.82;57.51;98917.59;5052227;28;20029;-67
2023/05/28 02:57:43;;;;;;;10.50;6.50;;;;;;;8.81;57.48;98920.63;5052193;28;20543;-67
2023/05/28 03:00:09;;;;;;;10.45;6.45;;;;;;;8.80;57.82;98917.06;5051184;28;20033;-67
2023/05/28 03:02:35;;;;;;;11.38;6.43;;;;;;;8.79;57.48;98915.41;5045572;28;20047;-67
2023/05/28 03:05:02;;;;;;;9.25;6.25;;;;;;;8.77;57.55;98907.50;5050398;28;20453;-67
2023/05/28 03:07:28;;;;;;;12.02;6.10;;;;;;;8.78;57.70;98906.41;5051766;28;20460;-67
2023/05/28 03:09:54;;;;;;;10.85;5.82;;;;;;;8.79;57.09;98904.47;5047692;28;20028;-67
2023/05/28 03:12:19;;;;;;;10.32;5.65;;;;;;;8.77;57.50;98902.03;5052396;28;20025;-67
2023/05/28 03:14:45;;;;;;;14.43;5.90;;;;;;;8.77;57.50;98907.50;5051756;28;20040;-67
2023/05/28 03:17:10;;;;;;;10.20;5.45;;;;;;;8.78;57.99;98909.13;5051733;28;20017;-67
2023/05/28 03:19:36;;;;;;;10.23;5.72;;;;;;;8.81;57.86;98898.75;5051364;28;20032;-67
2023/05/28 03:22:02;;;;;;;10.13;4.70;;;;;;;8.82;58.12;98903.13;5051353;28;20017;-67
2023/05/28 03:24:27;;;;;;;9.75;5.75;;;;;;;8.82;57.61;98903.94;5051537;28;20025;-68
2023/05/28 03:26:53;;;;;;;8.63;4.65;;;;;;;8.84;57.50;98909.16;5051470;28;20370;-67
2023/05/28 03:29:18;;;;;;;13.73;5.60;;;;;;;8.85;57.48;98899.84;5049998;28;20457;-67
2023/05/28 03:31:47;;;;;;;10.23;4.97;;;;;;;8.85;57.81;98908.06;5051304;28;20040;-67
2023/05/28 03:34:12;;;;;;;8.57;4.90;;;;;;;8.87;57.47;98892.19;5051170;28;20063;-67
2023/05/28 03:36:41;;;;;;;8.73;5.25;;;;;;;8.88;58.06;98897.38;5051085;28;20052;-68
2023/05/28 03:39:08;;;;;;;8.23;5.00;;;;;;;8.90;57.93;98897.91;5051039;28;20485;-67
2023/05/28 03:41:34;;;;;;;8.30;4.97;;;;;;;8.94;57.73;98892.75;5051394;28;20040;-67
2023/05/28 03:43:59;;;;;;;7.88;4.22;;;;;;;8.96;57.93;98896.03;5047312;28;20095;-67
2023/05/28 03:46:25;;;;;;;8.85;4.95;;;;;;;9.00;58.23;98905.28;5051134;28;20028;-67
2023/05/28 03:48:50;;;;;;;8.80;4.55;;;;;;;9.02;58.56;98905.03;5051242;28;20107;-67
2023/05/28 03:51:16;;;;;;;8.85;4.82;;;;;;;9.06;58.10;98906.13;5051041;28;20032;-67
2023/05/28 03:53:41;;;;;;;9.82;4.80;;;;;;;9.09;57.77;98908.31;5051191;28;20017;-67
2023/05/28 03:56:07;;;;;;;10.25;5.63;;;;;;;9.14;58.05;98893.78;5051053;28;20024;-67
2023/05/28 03:58:32;;;;;;;10.43;5.53;;;;;;;9.18;58.41;98895.69;5051100;28;20032;-66
2023/05/28 04:00:58;;;;;;;10.70;5.80;;;;;;;9.22;58.05;98894.03;5050730;28;20112;-67
2023/05/28 04:03:23;;;;;;;9.32;5.38;;;;;;;9.27;58.11;98904.19;5050835;28;20033;-67
2023/05/28 04:05:48;;;;;;;9.95;4.95;;;;;;;9.32;58.59;98898.69;5049441;28;20146;-67
2023/05/28 04:08:14;;;;;;;9.05;5.25;;;;;;;9.36;58.26;98891.56;5050810;28;20040;-67
2023/05/28 04:10:39;;;;;;;7.45;4.47;;;;;;;9.44;58.79;98903.88;5050706;28;20028;-67
2023/05/28 04:13:05;;;;;;;8.60;3.90;;;;;;;9.49;57.90;98903.03;5050677;28;20060;-66
2023/05/28 04:15:31;;;;;;;7.65;3.95;;;;;;;9.55;58.48;98901.09;5041734;28;20030;-67
2023/05/28 04:17:56;;;;;;;10.32;4.50;;;;;;;9.60;58.58;98899.16;5032988;28;20056;-68
2023/05/28 04:20:21;;;;;;;7.63;3.90;;;;;;;9.67;58.16;98896.13;5040201;28;20386;-67
2023/05/28 04:22:47;;;;;;;7.47;3.72;;;;;;;9.72;58.08;98898.84;5032786;28;20030;-67
2023/05/28 04:25:12;;;;;;;6.93;4.20;;;;;;;9.79;57.95;98907.59;5033407;28;20034;-67
2023/05/28 04:27:40;;;;;;;7.80;3.70;;;;;;;9.86;58.29;98895.50;5038510;28;20025;-67
2023/05/28 04:30:08;;;;;;;5.80;3.45;;;;;;;9.93;57.92;98896.84;5055754;28;20017;-68
2023/05/28 04:32:33;;;;;;;8.02;3.30;;;;;;;9.98;57.72;98896.81;5055985;28;20112;-67
2023/05/28 04:35:03;;;;;;;7.75;3.42;;;;;;;10.06;58.02;98891.84;5040266;28;20588;-67
2023/05/28 04:37:28;;;;;;;6.57;3.33;;;;;;;10.10;57.96;98896.47;5039605;28;20049;-67
2023/05/28 04:39:54;;;;;;;7.50;3.35;;;;;;;10.16;58.21;98899.19;5048257;28;20040;-67
2023/05/28 04:42:19;;;;;;;6.40;3.42;;;;;;;10.23;58.22;98891.47;5053998;28;20497;-67
2023/05/28 04:44:44;;;;;;;6.50;3.20;;;;;;;10.29;57.94;98890.34;5053629;28;20020;-68
2023/05/28 04:47:11;;;;;;;5.35;3.30;;;;;;;10.35;57.62;98889.22;5053494;28;20029;-67
2023/05/28 04:49:37;;;;;;;7.22;3.40;;;;;;;10.42;57.41;98891.66;5049953;28;20086;-67
2023/05/28 04:52:03;;;;;;;5.85;3.15;;;;;;;10.48;57.61;98893.28;5060265;28;20032;-67
2023/05/28 04:54:28;;;;;;;6.25;2.90;;;;;;;10.54;57.12;98888.56;5064591;28;20024;-67
2023/05/28 04:56:53;;;;;;;6.07;2.85;;;;;;;10.62;57.27;98892.59;5047724;28;20404;-68
2023/05/28 04:59:20;;;;;;;4.88;2.83;;;;;;;10.68;57.98;98880.50;5048779;28;20032;-67
2023/05/28 05:01:45;;;;;;;8.48;3.72;;;;;;;10.74;57.67;98882.09;5054981;28;20061;-67
2023/05/28 05:04:10;;;;;;;5.80;3.22;;;;;;;10.82;57.75;98886.13;5055120;28;20102;-67
2023/05/28 05:06:36;;;;;;;6.03;2.80;;;;;;;10.89;57.30;98891.31;5044180;28;20106;-68
2023/05/28 05:09:04;;;;;;;5.70;2.50;;;;;;;10.95;57.45;98901.16;5036837;28;20462;-68
2023/05/28 05:11:30;;;;;;;6.28;3.28;;;;;;;11.01;57.45;98895.31;5055357;28;20048;-67
2023/05/28 05:13:56;;;;;;;6.30;2.92;;;;;;;11.06;57.12;98891.69;5050470;28;20107;-67
2023/05/28 05:16:21;;;;;;;5.47;2.65;;;;;;;11.13;57.47;98896.88;5055291;28;20363;-67
2023/05/28 05:18:47;;;;;;;6.95;2.78;;;;;;;11.20;56.75;98899.25;5039535;28;20492;-68
2023/05/28 05:21:13;;;;;;;8.73;2.85;;;;;;;11.26;57.68;98887.13;5049182;28;20029;-68
2023/05/28 05:23:40;;;;;;;6.00;2.70;;;;;;;11.32;57.51;98900.50;5054441;28;20501;-67
2023/05/28 05:26:06;;;;;;;6.25;3.10;;;;;;;11.39;57.15;98899.34;5054806;28;20042;-67
2023/05/28 05:28:32;;;;;;;6.95;2.70;;;;;;;11.44;57.25;98896.53;5038660;28;20033;-67
2023/05/28 05:30:57;;;;;;;6.63;2.70;;;;;;;11.52;56.75;98895.09;5040619;28;20031;-68
2023/05/28 05:33:22;;;;;;;5.78;2.92;;;;;;;11.56;57.35;98896.97;5041432;28;20068;-68
2023/05/28 05:35:48;;;;;;;4.55;2.85;;;;;;;11.62;56.80;98893.03;5054391;28;20079;-67
2023/05/28 05:38:13;;;;;;;6.18;2.63;;;;;;;11.70;57.19;98894.34;5038092;28;20466;-68
2023/05/28 05:40:38;;;;;;;5.63;2.80;;;;;;;11.79;56.93;98894.50;5034709;28;20469;-68
2023/05/28 05:43:04;;;;;;;4.78;2.97;;;;;;;11.85;57.20;98885.09;5035771;28;20088;-67
2023/05/28 05:45:29;;;;;;;5.00;2.58;;;;;;;11.92;56.89;98895.69;5051199;28;20124;-67
2023/05/28 05:47:56;;;;;;;6.22;2.70;;;;;;;11.99;56.80;98882.44;5050187;28;20041;-67
2023/05/28 05:50:21;;;;;;;5.25;2.60;;;;;;;12.08;56.75;98885.34;5063726;28;20036;-67
2023/05/28 05:52:47;;;;;;;4.43;2.53;;;;;;;12.16;56.54;98889.41;5074783;28;20111;-67
2023/05/28 05:55:12;;;;;;;6.07;2.90;;;;;;;12.21;56.76;98890.13;5041672;28;20436;-67
2023/05/28 05:57:37;;;;;;;6.72;2.40;;;;;;;12.28;56.16;98886.19;5034536;28;20029;-67
2023/05/28 06:00:06;;;;;;;3.78;2.65;;;;;;;12.36;56.56;98896.53;5047581;28;20052;-67
2023/05/28 06:02:32;;;;;;;4.72;2.17;;;;;;;12.42;56.23;98889.84;5051915;28;20044;-67
2023/05/28 06:04:57;;;;;;;5.00;2.92;;;;;;;12.51;56.38;98893.53;5037031;28;20037;-67
2023/05/28 06:07:23;;;;;;;4.82;2.50;;;;;;;12.57;56.26;98886.03;5051515;28;20159;-68
2023/05/28 06:09:49;;;;;;;4.75;2.40;;;;;;;12.64;56.08;98891.97;5040634;28;20029;-68
2023/05/28 06:12:15;;;;;;;7.28;2.50;;;;;;;12.71;55.79;98888.84;5034108;28;20025;-68
2023/05/28 06:14:40;;;;;;;4.28;2.58;;;;;;;12.78;55.62;98886.53;5036972;28;20525;-67
2023/05/28 06:17:06;;;;;;;5.13;2.60;;;;;;;12.87;55.72;98891.31;5034083;28;20060;-68
2023/05/28 06:19:33;;;;;;;4.68;2.40;;;;;;;12.94;55.64;98887.09;5052453;28;20482;-68
2023/05/28 06:21:58;;;;;;;6.28;2.80;;;;;;;13.02;55.35;98893.84;5053728;28;20028;-68
2023/05/28 06:24:23;;;;;;;4.13;2.20;;;;;;;13.09;55.72;98886.00;5040715;28;20283;-69
2023/05/28 06:26:49;;;;;;;3.55;2.45;;;;;;;13.18;55.42;98888.88;5054217;28;20112;-68
2023/05/28 06:29:14;;;;;;;5.85;2.50;;;;;;;13.27;55.27;98900.00;5049123;28;20446;-68
2023/05/28 06:31:40;;;;;;;8.55;2.50;;;;;;;13.34;55.20;98892.16;5037344;28;20083;-67
2023/05/28 06:34:05;;;;;;;4.93;2.30;;;;;;;13.42;55.32;98898.13;5047620;28;20033;-68
2023/05/28 06:36:30;;;;;;;4.28;2.00;;;;;;;13.52;55.04;98892.41;5053074;28;20037;-67
2023/05/28 06:38:56;;;;;;;5.13;2.38;;;;;;;13.59;55.05;98889.25;5053310;28;20033;-68
2023/05/28 06:41:21;;;;;;;3.45;2.10;;;;;;;13.67;54.95;98896.81;5053356;28;20555;-68
2023/05/28 06:43:47;;;;;;;4.97;2.00;;;;;;;13.76;54.69;98899.66;5046218;28;20068;-68
2023/05/28 06:46:13;;;;;;;6.00;2.30;;;;;;;13.84;54.70;98887.91;5051427;28;20025;-68
2023/05/28 06:48:39;;;;;;;4.88;2.33;;;;;;;13.92;54.37;98902.91;5051304;28;20021;-68
2023/05/28 06:51:04;;;;;;;5.45;2.25;;;;;;;13.99;54.36;98887.63;5053482;28;20311;-68
2023/05/28 06:53:30;;;;;;;4.40;2.35;;;;;;;14.05;54.13;98888.31;5047841;28;20039;-68
2023/05/28 06:55:55;;;;;;;3.25;2.05;;;;;;;14.14;54.34;98883.69;5033503;28;20108;-68
2023/05/28 06:58:21;;;;;;;4.53;2.03;;;;;;;14.21;53.85;98880.50;5034394;28;20413;-68
2023/05/28 07:00:46;;;;;;;4.82;2.15;;;;;;;14.29;53.57;98879.78;5052462;28;20033;-68
2023/05/28 07:03:11;;;;;;;4.90;2.35;;;;;;;14.37;53.60;98877.41;5049243;28;20033;-68
2023/05/28 07:05:37;;;;;;;3.55;2.15;;;;;;;14.46;53.73;98871.97;5037429;28;20030;-68
2023/05/28 07:08:03;;;;;;;3.72;1.95;;;;;;;14.55;53.19;98875.63;5034781;28;20029;-68
2023/05/28 07:10:28;;;;;;;4.00;1.90;;;;;;;14.64;53.16;98878.44;5043100;28;20460;-67
2023/05/28 07:12:54;;;;;;;5.03;1.98;;;;;;;14.70;52.98;98866.19;5049424;28;20479;-68
2023/05/28 07:15:21;;;;;;;3.47;1.85;;;;;;;14.77;52.69;98869.31;5049503;28;20038;-68
2023/05/28 07:17:46;;;;;;;4.20;1.75;;;;;;;14.84;52.64;98882.66;5050188;28;20039;-68
2023/05/28 07:20:12;;;;;;;6.32;2.05;;;;;;;14.91;52.66;98872.00;5062450;28;20036;-68
2023/05/28 07:22:37;;;;;;;3.03;1.83;;;;;;;14.98;52.43;98868.78;5069489;28;20063;-68
2023/05/28 07:25:03;;;;;;;4.45;1.83;;;;;;;15.08;52.31;98865.75;5051744;28;20045;-68
2023/05/28 07:27:29;;;;;;;2.80;1.55;;;;;;;15.18;52.06;98871.03;5049889;28;20449;-69
2023/05/28 07:29:56;;;;;;;4.90;2.00;;;;;;;15.26;51.79;98863.09;5033001;28;20104;-68
2023/05/28 07:32:21;;;;;;;3.42;1.80;;;;;;;15.34;51.77;98862.31;5042531;28;20034;-68
2023/05/28 07:34:47;;;;;;;4.25;1.77;;;;;;;15.44;51.54;98866.75;5047026;28;20108;-68
2023/05/28 07:37:12;;;;;;;5.97;1.73;;;;;;;15.53;51.08;98859.28;5050825;28;20028;-67
2023/05/28 07:39:38;;;;;;;3.40;1.70;;;;;;;15.63;51.08;98856.25;5040335;28;20656;-68
2023/05/28 07:42:03;;;;;;;5.72;1.33;;;;;;;15.73;50.89;98862.63;5042310;28;20029;-69
2023/05/28 07:44:29;;;;;;;4.50;1.70;;;;;;;15.81;50.02;98856.31;5050306;28;20039;-69
2023/05/28 07:46:54;;;;;;;6.53;1.70;;;;;;;15.85;49.63;98862.00;5052052;28;20106;-69
2023/05/28 07:49:21;;;;;;;3.30;1.63;;;;;;;15.88;49.64;98859.47;5034830;28;20425;-67
2023/05/28 07:51:46;;;;;;;3.65;1.88;;;;;;;15.95;49.42;98852.63;5039293;28;20059;-68
2023/05/28 07:54:12;;;;;;;4.05;1.60;;;;;;;16.02;49.20;98858.50;5039421;28;20041;-68
2023/05/28 07:56:38;;;;;;;4.97;1.73;;;;;;;16.08;48.87;98854.44;5050254;28;20040;-67
2023/05/28 07:59:04;;;;;;;4.82;1.50;;;;;;;16.17;48.72;98854.44;5037859;28;20040;-68
2023/05/28 08:01:30;;;;;;;3.65;1.50;;;;;;;16.23;48.33;98847.63;5057068;28;20371;-68
2023/05/28 08:03:55;;;;;;;3.88;1.60;;;;;;;16.31;48.64;98848.75;5048807;28;20082;-69
2023/05/28 08:06:21;;;;;;;3.75;2.00;;;;;;;16.39;48.53;98845.16;5036876;28;20359;-68
2023/05/28 08:08:46;;;;;;;3.22;1.38;;;;;;;16.47;47.95;98849.91;5048264;28;20044;-68
2023/05/28 08:11:14;;;;;;;2.45;1.30;;;;;;;16.52;47.81;98844.19;5032229;28;20501;-68
2023/05/28 08:13:40;;;;;;;2.83;1.30;;;;;;;16.58;47.30;98849.56;5045809;28;20036;-68
2023/05/28 08:16:06;;;;;;;5.38;1.75;;;;;;;16.63;47.16;98849.41;5045682;28;20029;-68
2023/05/28 08:18:31;;;;;;;3.38;1.60;;;;;;;16.67;46.80;98848.41;5047296;28;20029;-69
2023/05/28 08:20:57;;;;;;;3.60;1.45;;;;;;;16.74;46.57;98849.88;5038107;28;20078;-69
2023/05/28 08:23:22;;;;;;;4.28;2.00;;;;;;;16.80;46.84;98843.84;5046972;28;20037;-67
2023/05/28 08:25:47;;;;;;;3.97;1.85;;;;;;;16.88;46.94;98841.38;5040021;28;20458;-68
2023/05/28 08:28:16;;;;;;;4.57;1.77;;;;;;;16.93;46.44;98838.44;5048056;28;20134;-67
2023/05/28 08:30:42;;;;;;;3.00;1.60;;;;;;;16.99;46.15;98839.94;5050713;28;20033;-67
2023/05/28 08:33:07;;;;;;;4.93;1.40;;;;;;;17.06;45.94;98839.41;5033868;28;20462;-67
2023/05/28 08:35:32;;;;;;;4.57;1.50;;;;;;;17.13;45.08;98845.28;5039833;28;20025;-67
2023/05/28 08:37:58;;;;;;;3.67;1.50;;;;;;;17.15;45.21;98847.69;5034785;28;20448;-67
2023/05/28 08:40:23;;;;;;;4.15;1.50;;;;;;;17.16;45.16;98841.84;5030874;28;20042;-66
2023/05/28 08:42:49;;;;;;;4.70;1.70;;;;;;;17.23;44.98;98838.53;5031646;28;20034;-67
2023/05/28 08:45:15;;;;;;;4.88;1.60;;;;;;;17.30;45.19;98843.59;5032155;28;20052;-66
2023/05/28 08:47:42;;;;;;;8.20;3.83;;;;;;;17.38;45.08;98839.94;5033791;28;20403;-67
2023/05/28 08:50:08;;;;;;;3.08;1.70;;;;;;;17.48;45.18;98845.13;5041202;28;20036;-67
2023/05/28 08:52:34;;;;;;;4.07;1.70;;;;;;;17.53;44.90;98833.84;5050096;28;20067;-68
2023/05/28 08:55:00;;;;;;;4.57;1.90;;;;;;;17.61;44.69;98834.16;5036413;28;20017;-68
2023/05/28 08:57:28;;;;;;;4.28;1.63;;;;;;;17.66;44.68;98826.44;5037478;28;20045;-68
2023/05/28 08:59:54;;;;;;;2.20;1.40;;;;;;;17.71;44.29;98829.03;5048096;28;20477;-68
2023/05/28 09:02:28;;;;;;;5.13;1.52;;;;;;;17.79;44.53;98826.56;5037072;28;20030;-68
2023/05/28 09:04:56;;;;;;;3.35;1.35;;;;;;;17.86;44.40;98832.38;5035459;28;20033;-69
2023/05/28 09:07:22;;;;;;;4.03;1.90;;;;;;;17.91;44.36;98823.03;5050789;28;20037;-68
2023/05/28 09:09:48;;;;;;;2.60;1.23;;;;;;;17.96;44.08;98820.88;5049363;28;20048;-68
2023/05/28 09:12:19;;;;;;;3.72;1.80;;;;;;;18.03;44.50;98817.63;5050160;28;20021;-68
2023/05/28 09:14:45;;;;;;;2.15;1.42;;;;;;;18.10;44.30;98817.88;5053787;28;20484;-67
2023/05/28 09:17:13;;;;;;;2.47;1.60;;;;;;;18.19;44.13;98814.22;5057519;28;20029;-67
2023/05/28 09:19:39;;;;;;;2.55;1.70;;;;;;;18.26;44.38;98804.22;5052403;28;20052;-68
2023/05/28 09:22:05;;;;;;;2.10;1.52;;;;;;;18.36;44.38;98805.75;5038165;28;20037;-68
2023/05/28 09:24:30;;;;;;;5.20;1.60;;;;;;;18.45;44.44;98798.16;5052827;28;20524;-67
2023/05/28 09:27:00;;;;;;;2.60;1.52;;;;;;;18.50;44.16;98799.09;5053987;28;20029;-67
2023/05/28 09:29:26;;;;;;;4.53;1.40;;;;;;;18.57;44.41;98789.06;5054439;28;20036;-67
2023/05/28 09:31:56;;;;;;;2.75;1.50;;;;;;;18.66;43.98;98793.72;5053829;28;20029;-67
2023/05/28 09:34:28;;;;;;;1.77;1.30;;;;;;;18.68;43.69;98783.88;5062504;28;20036;-67
2023/05/28 09:37:04;;;;;;;2.53;1.20;;;;;;;18.72;43.69;98784.03;5055157;28;20041;-68
2023/05/28 09:39:30;;;;;;;4.25;1.67;;;;;;;18.79;43.28;98786.22;5055515;28;20027;-69
2023/05/28 09:42:03;;;;;;;3.20;1.27;;;;;;;18.79;43.04;98789.81;5059384;28;20032;-69
2023/05/28 09:44:33;;;;;;;4.45;2.75;;;;;;;18.79;42.58;98781.47;5063227;28;20039;-67
2023/05/28 09:46:59;;;;;;;3.47;1.65;;;;;;;18.82;42.79;98789.13;5055121;28;20047;-67
2023/05/28 09:49:28;;;;;;;2.72;1.25;;;;;;;18.87;42.92;98780.56;5055454;28;20499;-69
2023/05/28 09:51:56;;;;;;;;;;;;;;;18.94;43.00;98773.63;5050264;28;20032;-68
2023/05/28 09:54:26;;;;;;;2.60;1.30;;;;;;;18.99;42.45;98774.25;5057731;28;19916;-69
2023/05/28 09:56:53;;;;;;;3.13;1.55;;;;;;;19.02;42.37;98769.97;5057096;28;20028;-68
2023/05/28 09:59:20;;;;;;;3.50;1.38;;;;;;;19.05;42.38;98783.19;5058946;28;20532;-68
2023/05/28 10:01:48;;;;;;;3.35;1.17;;;;;;;19.12;42.05;98786.22;5045050;28;20029;-67
2023/05/28 10:04:16;;;;;;;3.58;1.45;;;;;;;19.18;42.15;98781.22;5044376;28;20044;-69
2023/05/28 10:06:44;;;;;;;2.83;1.50;;;;;;;19.23;42.08;98775.44;5053895;28;20120;-69
2023/05/28 10:09:15;;;;;;;2.00;1.27;;;;;;;19.30;42.21;98780.44;5051409;28;20342;-68
2023/05/28 10:11:53;;;;;;;5.00;1.42;;;;;;;19.36;41.85;98778.25;5052753;28;20032;-68
2023/05/28 10:14:19;;;;;;;4.15;1.48;;;;;;;19.37;41.54;98786.22;5057233;28;20594;-67
2023/05/28 10:16:45;;;;;;;4.88;1.20;;;;;;;19.42;41.75;98780.44;5066480;28;20107;-68
2023/05/28 10:19:12;;;;;;;6.07;1.70;;;;;;;19.50;41.66;98787.03;5054008;28;20033;-68
2023/05/28 10:21:38;;;;;;;4.05;1.40;;;;;;;19.56;41.59;98780.06;5042492;28;20036;-69
2023/05/28 10:24:04;;;;;;;3.53;1.60;;;;;;;19.63;41.63;98771.97;5051575;28;20037;-71
2023/05/28 10:26:30;;;;;;;2.90;1.27;;;;;;;19.68;41.46;98772.88;5046082;28;20017;-69
2023/05/28 10:28:56;;;;;;;4.63;1.80;;;;;;;19.71;41.22;98775.78;5050257;28;20397;-68
2023/05/28 10:31:23;;;;;;;2.33;1.98;;;;;;;19.78;40.99;98773.22;5048483;28;20033;-69
2023/05/28 10:33:49;;;;;;;3.95;1.67;;;;;;;19.82;41.02;98770.53;5054640;28;20465;-71
2023/05/28 10:36:16;;;;;;;3.80;1.42;;;;;;;19.88;40.86;98766.38;5052455;28;20039;-69
2023/05/28 10:38:43;;;;;;;3.20;1.40;;;;;;;19.95;41.06;98765.81;5053570;28;20075;-70
2023/05/28 10:41:10;;;;;;;2.15;1.40;;;;;;;20.01;40.87;98769.94;5055843;28;20075;-69
2023/05/28 10:43:38;;;;;;;4.05;1.58;;;;;;;20.05;40.85;98764.50;5053293;28;20029;-72
2023/05/28 10:46:08;;;;;;;4.95;1.23;;;;;;;20.11;40.49;98760.31;5040226;28;20025;-69
2023/05/28 10:48:39;;;;;;;1.92;1.40;;;;;;;20.17;40.38;98763.63;5048346;28;20481;-67
2023/05/28 10:51:04;;;;;;;2.10;1.40;;;;;;;20.19;39.45;98764.88;5050741;28;20057;-67
2023/05/28 10:53:30;;;;;;;2.60;1.50;;;;;;;20.26;39.67;98757.91;5052678;28;20064;-67
2023/05/28 10:55:56;;;;;;;5.63;1.70;;;;;;;20.32;39.85;98757.31;5053194;28;20025;-68
2023/05/28 10:58:24;;;;;;;2.65;1.40;;;;;;;20.35;39.40;98751.03;5052868;28;20421;-68
2023/05/28 11:00:50;;;;;;;4.93;1.60;;;;;;;20.40;39.23;98763.06;5046919;28;20028;-68
2023/05/28 11:03:15;;;;;;;2.22;1.33;;;;;;;20.45;38.61;98762.81;5054178;28;20037;-68
2023/05/28 11:05:41;;;;;;;4.15;1.40;;;;;;;20.50;39.12;98763.41;5057355;28;20120;-67
2023/05/28 11:08:08;;;;;;;2.20;1.15;;;;;;;20.62;39.33;98770.06;5049486;28;20076;-68
2023/05/28 11:10:34;;;;;;;3.17;1.33;;;;;;;20.73;39.23;98762.00;5048296;28;20103;-68
2023/05/28 11:13:00;;;;;;;3.22;1.50;;;;;;;20.81;38.98;98767.44;5050835;28;20043;-66
2023/05/28 11:15:25;;;;;;;2.80;1.30;;;;;;;20.88;39.22;98758.44;5045571;28;20037;-67
2023/05/28 11:17:51;;;;;;;6.60;2.40;;;;;;;20.91;38.75;98762.50;5057223;28;20036;-67
2023/05/28 11:20:22;;;;;;;4.80;2.22;;;;;;;20.94;38.99;98764.56;5052405;28;20063;-67
2023/05/28 11:22:48;;;;;;;3.00;1.60;;;;;;;21.00;38.92;98754.75;5052642;28;20013;-67
2023/05/28 11:25:14;;;;;;;2.75;1.63;;;;;;;21.10;39.33;98759.00;5051173;28;20056;-66
2023/05/28 11:27:40;;;;;;;4.68;1.88;;;;;;;21.19;38.85;98756.84;5050837;28;20024;-66
2023/05/28 11:30:13;;;;;;;3.65;1.90;;;;;;;21.25;39.00;98762.97;5052181;28;20062;-66